sensor_id;sensor_type;location;lat;lon;timestamp;P1;durP1;ratioP1;P2;durP2;ratioP2
5979;SDS011;3016;50.308;8.258;2022-09-02T00:01:32;6.40;;;2.40;;
5979;SDS011;3016;50.308;8.258;2022-09-02T00:04:37;4.87;;;2.67;;
5979;SDS011;3016;50.308;8.258;2022-09-02T00:07:38;3.60;;;1.70;;
5979;SDS011;3016;50.308;8.258;2022-09-02T00:10:40;15.53;;;3.20;;
5979;SDS011;3016;50.308;8.258;2022-09-02T00:13:43;5.70;;;2.57;;
5979;SDS011;3016;50.308;8.258;2022-09-02T00:16:45;5.17;;;2.13;;
5979;SDS011;3016;50.308;8.258;2022-09-02T00:19:50;7.77;;;2.33;;
5979;SDS011;3016;50.308;8.258;2022-09-02T00:22:53;5.10;;;2.40;;
5979;SDS011;3016;50.308;8.258;2022-09-02T00:25:54;4.03;;;1.97;;
5979;SDS011;3016;50.308;8.258;2022-09-02T00:28:54;3.40;;;1.70;;
5979;SDS011;3016;50.308;8.258;2022-09-02T00:31:56;4.07;;;1.80;;
5979;SDS011;3016;50.308;8.258;2022-09-02T00:34:57;9.53;;;2.67;;
5979;SDS011;3016;50.308;8.258;2022-09-02T00:37:59;5.60;;;2.47;;
5979;SDS011;3016;50.308;8.258;2022-09-02T00:41:01;4.27;;;2.33;;
5979;SDS011;3016;50.308;8.258;2022-09-02T00:44:06;5.00;;;2.70;;
5979;SDS011;3016;50.308;8.258;2022-09-02T00:47:13;7.33;;;2.13;;
5979;SDS011;3016;50.308;8.258;2022-09-02T00:50:16;5.45;;;2.58;;
5979;SDS011;3016;50.308;8.258;2022-09-02T00:53:21;5.40;;;2.47;;
5979;SDS011;3016;50.308;8.258;2022-09-02T00:56:23;4.17;;;2.27;;
5979;SDS011;3016;50.308;8.258;2022-09-02T00:59:32;9.23;;;2.53;;
5979;SDS011;3016;50.308;8.258;2022-09-02T01:03:07;5.57;;;2.17;;
5979;SDS011;3016;50.308;8.258;2022-09-02T01:06:12;4.90;;;2.13;;
5979;SDS011;3016;50.308;8.258;2022-09-02T01:09:16;6.25;;;2.50;;
5979;SDS011;3016;50.308;8.258;2022-09-02T01:12:17;4.67;;;2.70;;
5979;SDS011;3016;50.308;8.258;2022-09-02T01:15:18;5.70;;;2.90;;
5979;SDS011;3016;50.308;8.258;2022-09-02T01:18:20;7.50;;;2.43;;
5979;SDS011;3016;50.308;8.258;2022-09-02T01:21:28;4.03;;;2.00;;
5979;SDS011;3016;50.308;8.258;2022-09-02T01:24:29;4.57;;;2.23;;
5979;SDS011;3016;50.308;8.258;2022-09-02T01:27:31;4.93;;;2.60;;
5979;SDS011;3016;50.308;8.258;2022-09-02T01:30:33;4.87;;;2.60;;
5979;SDS011;3016;50.308;8.258;2022-09-02T01:33:37;5.83;;;2.80;;
5979;SDS011;3016;50.308;8.258;2022-09-02T01:36:38;5.20;;;2.67;;
5979;SDS011;3016;50.308;8.258;2022-09-02T01:39:41;5.30;;;2.50;;
5979;SDS011;3016;50.308;8.258;2022-09-02T01:42:42;5.57;;;2.50;;
5979;SDS011;3016;50.308;8.258;2022-09-02T01:45:46;5.43;;;2.77;;
5979;SDS011;3016;50.308;8.258;2022-09-02T01:48:49;6.53;;;3.38;;
5979;SDS011;3016;50.308;8.258;2022-09-02T01:51:52;10.20;;;3.30;;
5979;SDS011;3016;50.308;8.258;2022-09-02T01:54:54;4.60;;;2.30;;
5979;SDS011;3016;50.308;8.258;2022-09-02T01:57:56;4.53;;;2.60;;
5979;SDS011;3016;50.308;8.258;2022-09-02T02:00:57;5.00;;;3.00;;
5979;SDS011;3016;50.308;8.258;2022-09-02T02:03:57;4.77;;;3.07;;
5979;SDS011;3016;50.308;8.258;2022-09-02T02:06:58;4.87;;;2.50;;
5979;SDS011;3016;50.308;8.258;2022-09-02T02:09:59;5.60;;;2.90;;
5979;SDS011;3016;50.308;8.258;2022-09-02T02:13:00;5.53;;;2.90;;
5979;SDS011;3016;50.308;8.258;2022-09-02T02:16:01;5.03;;;3.77;;
5979;SDS011;3016;50.308;8.258;2022-09-02T02:19:03;5.65;;;3.10;;
5979;SDS011;3016;50.308;8.258;2022-09-02T02:22:04;5.27;;;3.10;;
5979;SDS011;3016;50.308;8.258;2022-09-02T02:25:05;7.20;;;3.50;;
5979;SDS011;3016;50.308;8.258;2022-09-02T02:28:07;4.80;;;3.10;;
5979;SDS011;3016;50.308;8.258;2022-09-02T02:31:08;5.10;;;2.97;;
5979;SDS011;3016;50.308;8.258;2022-09-02T02:34:09;4.93;;;3.10;;
5979;SDS011;3016;50.308;8.258;2022-09-02T02:37:11;4.93;;;2.53;;
5979;SDS011;3016;50.308;8.258;2022-09-02T02:40:13;4.70;;;3.30;;
5979;SDS011;3016;50.308;8.258;2022-09-02T02:43:15;8.03;;;3.33;;
5979;SDS011;3016;50.308;8.258;2022-09-02T02:46:16;4.33;;;2.97;;
5979;SDS011;3016;50.308;8.258;2022-09-02T02:49:17;5.50;;;3.27;;
5979;SDS011;3016;50.308;8.258;2022-09-02T02:52:18;5.33;;;3.30;;
5979;SDS011;3016;50.308;8.258;2022-09-02T02:55:19;5.23;;;3.33;;
5979;SDS011;3016;50.308;8.258;2022-09-02T02:58:21;7.70;;;3.20;;
5979;SDS011;3016;50.308;8.258;2022-09-02T03:01:22;5.47;;;3.00;;
5979;SDS011;3016;50.308;8.258;2022-09-02T03:04:23;4.30;;;2.70;;
5979;SDS011;3016;50.308;8.258;2022-09-02T03:07:23;4.83;;;3.10;;
5979;SDS011;3016;50.308;8.258;2022-09-02T03:10:24;6.23;;;3.00;;
5979;SDS011;3016;50.308;8.258;2022-09-02T03:13:26;3.93;;;2.40;;
5979;SDS011;3016;50.308;8.258;2022-09-02T03:16:26;4.50;;;2.60;;
5979;SDS011;3016;50.308;8.258;2022-09-02T03:19:27;5.43;;;3.13;;
5979;SDS011;3016;50.308;8.258;2022-09-02T03:22:28;4.20;;;2.50;;
5979;SDS011;3016;50.308;8.258;2022-09-02T03:25:29;7.03;;;3.03;;
5979;SDS011;3016;50.308;8.258;2022-09-02T03:28:31;5.33;;;2.80;;
5979;SDS011;3016;50.308;8.258;2022-09-02T03:31:32;5.30;;;2.80;;
5979;SDS011;3016;50.308;8.258;2022-09-02T03:34:33;3.97;;;2.60;;
5979;SDS011;3016;50.308;8.258;2022-09-02T03:37:34;5.30;;;2.67;;
5979;SDS011;3016;50.308;8.258;2022-09-02T03:40:36;4.13;;;2.73;;
5979;SDS011;3016;50.308;8.258;2022-09-02T03:43:38;5.37;;;3.10;;
5979;SDS011;3016;50.308;8.258;2022-09-02T03:46:39;4.40;;;3.13;;
5979;SDS011;3016;50.308;8.258;2022-09-02T03:49:40;4.27;;;3.10;;
5979;SDS011;3016;50.308;8.258;2022-09-02T03:52:40;5.40;;;3.23;;
5979;SDS011;3016;50.308;8.258;2022-09-02T03:55:41;5.17;;;3.00;;
5979;SDS011;3016;50.308;8.258;2022-09-02T03:58:42;4.70;;;3.00;;
5979;SDS011;3016;50.308;8.258;2022-09-02T04:01:45;4.53;;;2.65;;
5979;SDS011;3016;50.308;8.258;2022-09-02T04:04:46;4.90;;;3.10;;
5979;SDS011;3016;50.308;8.258;2022-09-02T04:07:47;5.90;;;3.20;;
5979;SDS011;3016;50.308;8.258;2022-09-02T04:10:50;5.63;;;3.07;;
5979;SDS011;3016;50.308;8.258;2022-09-02T04:13:51;5.27;;;3.20;;
5979;SDS011;3016;50.308;8.258;2022-09-02T04:16:52;7.67;;;3.00;;
5979;SDS011;3016;50.308;8.258;2022-09-02T04:19:53;6.17;;;2.50;;
5979;SDS011;3016;50.308;8.258;2022-09-02T04:22:54;4.70;;;3.10;;
5979;SDS011;3016;50.308;8.258;2022-09-02T04:25:55;4.80;;;3.53;;
5979;SDS011;3016;50.308;8.258;2022-09-02T04:28:56;5.53;;;3.40;;
5979;SDS011;3016;50.308;8.258;2022-09-02T04:31:57;6.57;;;3.03;;
5979;SDS011;3016;50.308;8.258;2022-09-02T04:34:58;6.17;;;3.03;;
5979;SDS011;3016;50.308;8.258;2022-09-02T04:37:58;5.43;;;2.97;;
5979;SDS011;3016;50.308;8.258;2022-09-02T04:40:59;5.30;;;3.10;;
5979;SDS011;3016;50.308;8.258;2022-09-02T04:44:04;5.47;;;3.40;;
5979;SDS011;3016;50.308;8.258;2022-09-02T04:47:06;6.10;;;3.20;;
5979;SDS011;3016;50.308;8.258;2022-09-02T04:50:07;6.57;;;3.90;;
5979;SDS011;3016;50.308;8.258;2022-09-02T04:53:08;6.50;;;3.53;;
5979;SDS011;3016;50.308;8.258;2022-09-02T04:56:10;5.43;;;4.10;;
5979;SDS011;3016;50.308;8.258;2022-09-02T04:59:14;7.03;;;3.30;;
5979;SDS011;3016;50.308;8.258;2022-09-02T05:02:14;5.27;;;3.17;;
5979;SDS011;3016;50.308;8.258;2022-09-02T05:05:15;8.83;;;4.13;;
5979;SDS011;3016;50.308;8.258;2022-09-02T05:08:16;5.33;;;3.80;;
5979;SDS011;3016;50.308;8.258;2022-09-02T05:11:18;6.03;;;3.30;;
5979;SDS011;3016;50.308;8.258;2022-09-02T05:14:23;5.60;;;3.10;;
5979;SDS011;3016;50.308;8.258;2022-09-02T05:17:24;5.07;;;3.37;;
5979;SDS011;3016;50.308;8.258;2022-09-02T05:20:31;4.40;;;2.90;;
5979;SDS011;3016;50.308;8.258;2022-09-02T05:23:46;6.10;;;3.07;;
5979;SDS011;3016;50.308;8.258;2022-09-02T05:26:47;4.97;;;3.20;;
5979;SDS011;3016;50.308;8.258;2022-09-02T05:29:52;5.27;;;3.10;;
5979;SDS011;3016;50.308;8.258;2022-09-02T05:32:55;5.40;;;3.07;;
5979;SDS011;3016;50.308;8.258;2022-09-02T05:35:56;4.83;;;3.20;;
5979;SDS011;3016;50.308;8.258;2022-09-02T05:38:57;6.40;;;3.33;;
5979;SDS011;3016;50.308;8.258;2022-09-02T05:41:58;5.30;;;3.27;;
5979;SDS011;3016;50.308;8.258;2022-09-02T05:44:59;7.10;;;3.43;;
5979;SDS011;3016;50.308;8.258;2022-09-02T05:48:00;5.30;;;3.10;;
5979;SDS011;3016;50.308;8.258;2022-09-02T05:51:20;4.27;;;2.80;;
5979;SDS011;3016;50.308;8.258;2022-09-02T05:54:24;5.60;;;3.00;;
5979;SDS011;3016;50.308;8.258;2022-09-02T05:57:33;6.10;;;4.33;;
5979;SDS011;3016;50.308;8.258;2022-09-02T06:00:34;4.80;;;3.00;;
5979;SDS011;3016;50.308;8.258;2022-09-02T06:03:36;4.67;;;3.60;;
5979;SDS011;3016;50.308;8.258;2022-09-02T06:06:38;4.63;;;3.23;;
5979;SDS011;3016;50.308;8.258;2022-09-02T06:09:39;5.30;;;3.63;;
5979;SDS011;3016;50.308;8.258;2022-09-02T06:12:40;5.20;;;3.90;;
5979;SDS011;3016;50.308;8.258;2022-09-02T06:15:41;7.27;;;4.60;;
5979;SDS011;3016;50.308;8.258;2022-09-02T06:18:43;5.30;;;4.20;;
5979;SDS011;3016;50.308;8.258;2022-09-02T06:21:44;4.80;;;3.20;;
5979;SDS011;3016;50.308;8.258;2022-09-02T06:24:49;6.10;;;3.63;;
5979;SDS011;3016;50.308;8.258;2022-09-02T06:27:51;7.63;;;3.53;;
5979;SDS011;3016;50.308;8.258;2022-09-02T06:30:51;6.50;;;4.07;;
5979;SDS011;3016;50.308;8.258;2022-09-02T06:33:53;5.50;;;4.00;;
5979;SDS011;3016;50.308;8.258;2022-09-02T06:36:55;5.27;;;3.80;;
5979;SDS011;3016;50.308;8.258;2022-09-02T06:39:56;6.93;;;4.10;;
5979;SDS011;3016;50.308;8.258;2022-09-02T06:42:57;7.27;;;3.67;;
5979;SDS011;3016;50.308;8.258;2022-09-02T06:45:58;7.57;;;4.00;;
5979;SDS011;3016;50.308;8.258;2022-09-02T06:48:59;5.80;;;3.77;;
5979;SDS011;3016;50.308;8.258;2022-09-02T06:52:00;8.00;;;4.23;;
5979;SDS011;3016;50.308;8.258;2022-09-02T06:55:01;8.97;;;4.60;;
5979;SDS011;3016;50.308;8.258;2022-09-02T06:58:02;6.67;;;3.80;;
5979;SDS011;3016;50.308;8.258;2022-09-02T07:01:03;8.70;;;3.47;;
5979;SDS011;3016;50.308;8.258;2022-09-02T07:04:04;5.43;;;3.67;;
5979;SDS011;3016;50.308;8.258;2022-09-02T07:07:23;8.30;;;4.13;;
5979;SDS011;3016;50.308;8.258;2022-09-02T07:10:24;5.93;;;3.70;;
5979;SDS011;3016;50.308;8.258;2022-09-02T07:13:25;6.07;;;3.00;;
5979;SDS011;3016;50.308;8.258;2022-09-02T07:16:27;5.67;;;2.70;;
5979;SDS011;3016;50.308;8.258;2022-09-02T07:19:34;7.30;;;3.10;;
5979;SDS011;3016;50.308;8.258;2022-09-02T07:22:35;4.80;;;2.80;;
5979;SDS011;3016;50.308;8.258;2022-09-02T07:25:38;5.83;;;2.73;;
5979;SDS011;3016;50.308;8.258;2022-09-02T07:28:40;5.77;;;4.00;;
5979;SDS011;3016;50.308;8.258;2022-09-02T07:31:43;5.20;;;2.80;;
5979;SDS011;3016;50.308;8.258;2022-09-02T07:34:46;5.30;;;2.60;;
5979;SDS011;3016;50.308;8.258;2022-09-02T07:37:47;4.97;;;2.73;;
5979;SDS011;3016;50.308;8.258;2022-09-02T07:40:49;6.43;;;2.60;;
5979;SDS011;3016;50.308;8.258;2022-09-02T07:43:50;7.63;;;2.80;;
5979;SDS011;3016;50.308;8.258;2022-09-02T07:46:51;5.33;;;2.60;;
5979;SDS011;3016;50.308;8.258;2022-09-02T07:49:52;9.43;;;3.07;;
5979;SDS011;3016;50.308;8.258;2022-09-02T07:52:53;7.27;;;2.50;;
5979;SDS011;3016;50.308;8.258;2022-09-02T07:55:56;5.03;;;2.33;;
5979;SDS011;3016;50.308;8.258;2022-09-02T07:58:58;5.37;;;2.50;;
5979;SDS011;3016;50.308;8.258;2022-09-02T08:01:59;7.97;;;2.47;;
5979;SDS011;3016;50.308;8.258;2022-09-02T08:05:00;5.50;;;2.20;;
5979;SDS011;3016;50.308;8.258;2022-09-02T08:08:01;6.13;;;2.10;;
5979;SDS011;3016;50.308;8.258;2022-09-02T08:11:03;7.40;;;2.30;;
5979;SDS011;3016;50.308;8.258;2022-09-02T08:14:08;5.97;;;2.57;;
5979;SDS011;3016;50.308;8.258;2022-09-02T08:17:12;4.63;;;2.13;;
5979;SDS011;3016;50.308;8.258;2022-09-02T08:20:13;6.87;;;2.10;;
5979;SDS011;3016;50.308;8.258;2022-09-02T08:23:16;6.20;;;1.53;;
5979;SDS011;3016;50.308;8.258;2022-09-02T08:26:17;4.70;;;1.57;;
5979;SDS011;3016;50.308;8.258;2022-09-02T08:29:18;4.27;;;1.77;;
5979;SDS011;3016;50.308;8.258;2022-09-02T08:32:18;4.50;;;2.00;;
5979;SDS011;3016;50.308;8.258;2022-09-02T08:35:19;4.50;;;2.10;;
5979;SDS011;3016;50.308;8.258;2022-09-02T08:38:20;4.50;;;2.03;;
5979;SDS011;3016;50.308;8.258;2022-09-02T08:41:22;6.93;;;2.27;;
5979;SDS011;3016;50.308;8.258;2022-09-02T08:44:26;5.20;;;2.03;;
5979;SDS011;3016;50.308;8.258;2022-09-02T08:47:28;7.87;;;2.43;;
5979;SDS011;3016;50.308;8.258;2022-09-02T08:50:32;6.30;;;1.90;;
5979;SDS011;3016;50.308;8.258;2022-09-02T08:53:39;5.13;;;1.90;;
5979;SDS011;3016;50.308;8.258;2022-09-02T08:56:50;5.23;;;1.93;;
5979;SDS011;3016;50.308;8.258;2022-09-02T08:59:55;5.83;;;2.13;;
5979;SDS011;3016;50.308;8.258;2022-09-02T09:03:17;5.03;;;2.00;;
5979;SDS011;3016;50.308;8.258;2022-09-02T09:09:51;6.17;;;1.73;;
5979;SDS011;3016;50.308;8.258;2022-09-02T09:17:00;5.30;;;1.87;;
5979;SDS011;3016;50.308;8.258;2022-09-02T09:20:19;5.00;;;1.80;;
5979;SDS011;3016;50.308;8.258;2022-09-02T09:23:31;4.80;;;1.87;;
5979;SDS011;3016;50.308;8.258;2022-09-02T09:26:34;4.30;;;1.70;;
5979;SDS011;3016;50.308;8.258;2022-09-02T09:29:39;7.40;;;1.90;;
5979;SDS011;3016;50.308;8.258;2022-09-02T09:32:42;5.37;;;1.90;;
5979;SDS011;3016;50.308;8.258;2022-09-02T09:35:54;7.23;;;1.83;;
5979;SDS011;3016;50.308;8.258;2022-09-02T09:38:55;4.10;;;1.80;;
5979;SDS011;3016;50.308;8.258;2022-09-02T09:41:56;4.13;;;2.20;;
5979;SDS011;3016;50.308;8.258;2022-09-02T09:45:14;3.83;;;1.73;;
5979;SDS011;3016;50.308;8.258;2022-09-02T09:51:29;4.73;;;1.87;;
5979;SDS011;3016;50.308;8.258;2022-09-02T09:54:30;4.70;;;1.70;;
5979;SDS011;3016;50.308;8.258;2022-09-02T09:57:31;5.40;;;1.77;;
5979;SDS011;3016;50.308;8.258;2022-09-02T10:00:32;7.43;;;1.60;;
5979;SDS011;3016;50.308;8.258;2022-09-02T10:03:40;4.30;;;1.80;;
5979;SDS011;3016;50.308;8.258;2022-09-02T10:06:47;3.73;;;1.57;;
5979;SDS011;3016;50.308;8.258;2022-09-02T10:09:49;5.50;;;2.10;;
5979;SDS011;3016;50.308;8.258;2022-09-02T10:13:22;3.90;;;1.80;;
5979;SDS011;3016;50.308;8.258;2022-09-02T10:16:43;3.70;;;1.83;;
5979;SDS011;3016;50.308;8.258;2022-09-02T10:20:21;6.50;;;1.80;;
5979;SDS011;3016;50.308;8.258;2022-09-02T10:27:36;8.87;;;1.90;;
5979;SDS011;3016;50.308;8.258;2022-09-02T10:37:59;6.50;;;1.70;;
5979;SDS011;3016;50.308;8.258;2022-09-02T10:41:38;6.70;;;1.90;;
5979;SDS011;3016;50.308;8.258;2022-09-02T10:45:06;4.33;;;1.83;;
5979;SDS011;3016;50.308;8.258;2022-09-02T10:52:26;6.73;;;1.93;;
5979;SDS011;3016;50.308;8.258;2022-09-02T10:55:53;4.27;;;1.93;;
5979;SDS011;3016;50.308;8.258;2022-09-02T10:59:09;5.80;;;1.90;;
5979;SDS011;3016;50.308;8.258;2022-09-02T11:02:19;4.13;;;1.70;;
5979;SDS011;3016;50.308;8.258;2022-09-02T11:05:24;5.87;;;1.87;;
5979;SDS011;3016;50.308;8.258;2022-09-02T11:08:35;7.93;;;2.70;;
5979;SDS011;3016;50.308;8.258;2022-09-02T11:11:46;4.50;;;2.00;;
5979;SDS011;3016;50.308;8.258;2022-09-02T11:15:20;4.10;;;1.47;;
5979;SDS011;3016;50.308;8.258;2022-09-02T11:19:01;7.80;;;1.60;;
5979;SDS011;3016;50.308;8.258;2022-09-02T11:25:54;4.33;;;1.43;;
5979;SDS011;3016;50.308;8.258;2022-09-02T11:29:05;6.70;;;1.70;;
5979;SDS011;3016;50.308;8.258;2022-09-02T11:32:20;4.20;;;1.57;;
5979;SDS011;3016;50.308;8.258;2022-09-02T11:35:38;4.60;;;1.60;;
5979;SDS011;3016;50.308;8.258;2022-09-02T11:38:42;5.40;;;1.60;;
5979;SDS011;3016;50.308;8.258;2022-09-02T11:45:30;6.47;;;1.60;;
5979;SDS011;3016;50.308;8.258;2022-09-02T11:52:18;10.07;;;1.80;;
5979;SDS011;3016;50.308;8.258;2022-09-02T11:55:45;3.33;;;1.50;;
5979;SDS011;3016;50.308;8.258;2022-09-02T11:58:56;3.03;;;1.33;;
5979;SDS011;3016;50.308;8.258;2022-09-02T12:01:57;7.13;;;1.73;;
5979;SDS011;3016;50.308;8.258;2022-09-02T12:11:45;5.13;;;1.70;;
5979;SDS011;3016;50.308;8.258;2022-09-02T12:29:57;4.53;;;1.60;;
5979;SDS011;3016;50.308;8.258;2022-09-02T12:33:02;4.10;;;1.57;;
5979;SDS011;3016;50.308;8.258;2022-09-02T12:42:36;7.70;;;1.80;;
5979;SDS011;3016;50.308;8.258;2022-09-02T12:45:40;5.33;;;1.50;;
5979;SDS011;3016;50.308;8.258;2022-09-02T12:49:04;8.80;;;1.43;;
5979;SDS011;3016;50.308;8.258;2022-09-02T12:52:37;5.03;;;1.60;;
5979;SDS011;3016;50.308;8.258;2022-09-02T12:55:41;5.40;;;1.63;;
5979;SDS011;3016;50.308;8.258;2022-09-02T12:59:03;5.83;;;1.47;;
5979;SDS011;3016;50.308;8.258;2022-09-02T13:33:05;4.37;;;1.50;;
5979;SDS011;3016;50.308;8.258;2022-09-02T13:36:10;3.83;;;1.83;;
5979;SDS011;3016;50.308;8.258;2022-09-02T13:39:26;9.10;;;2.00;;
5979;SDS011;3016;50.308;8.258;2022-09-02T13:42:33;3.83;;;1.60;;
5979;SDS011;3016;50.308;8.258;2022-09-02T13:45:37;11.93;;;1.57;;
5979;SDS011;3016;50.308;8.258;2022-09-02T13:48:48;5.13;;;1.70;;
5979;SDS011;3016;50.308;8.258;2022-09-02T13:51:49;5.60;;;1.60;;
5979;SDS011;3016;50.308;8.258;2022-09-02T13:54:55;3.40;;;1.60;;
5979;SDS011;3016;50.308;8.258;2022-09-02T13:58:01;7.07;;;2.03;;
5979;SDS011;3016;50.308;8.258;2022-09-02T14:01:19;8.20;;;2.10;;
5979;SDS011;3016;50.308;8.258;2022-09-02T14:04:31;2.73;;;1.60;;
5979;SDS011;3016;50.308;8.258;2022-09-02T14:07:45;2.17;;;1.33;;
5979;SDS011;3016;50.308;8.258;2022-09-02T14:10:50;3.97;;;1.70;;
5979;SDS011;3016;50.308;8.258;2022-09-02T14:13:52;5.63;;;1.50;;
5979;SDS011;3016;50.308;8.258;2022-09-02T14:20:25;3.70;;;1.97;;
5979;SDS011;3016;50.308;8.258;2022-09-02T14:23:26;3.53;;;1.60;;
5979;SDS011;3016;50.308;8.258;2022-09-02T14:26:34;4.03;;;1.87;;
5979;SDS011;3016;50.308;8.258;2022-09-02T14:29:41;3.57;;;1.23;;
5979;SDS011;3016;50.308;8.258;2022-09-02T14:32:47;4.43;;;1.40;;
5979;SDS011;3016;50.308;8.258;2022-09-02T14:35:55;4.27;;;1.20;;
5979;SDS011;3016;50.308;8.258;2022-09-02T14:39:12;3.33;;;1.33;;
5979;SDS011;3016;50.308;8.258;2022-09-02T14:42:15;4.30;;;1.50;;
5979;SDS011;3016;50.308;8.258;2022-09-02T14:45:32;10.10;;;2.40;;
5979;SDS011;3016;50.308;8.258;2022-09-02T14:48:35;7.30;;;1.63;;
5979;SDS011;3016;50.308;8.258;2022-09-02T14:51:47;4.13;;;1.60;;
5979;SDS011;3016;50.308;8.258;2022-09-02T14:54:51;8.67;;;1.70;;
5979;SDS011;3016;50.308;8.258;2022-09-02T14:58:01;7.30;;;1.50;;
5979;SDS011;3016;50.308;8.258;2022-09-02T15:01:02;4.13;;;1.40;;
5979;SDS011;3016;50.308;8.258;2022-09-02T15:04:05;3.40;;;1.50;;
5979;SDS011;3016;50.308;8.258;2022-09-02T15:07:05;3.93;;;1.20;;
5979;SDS011;3016;50.308;8.258;2022-09-02T15:10:06;4.43;;;1.27;;
5979;SDS011;3016;50.308;8.258;2022-09-02T15:13:09;3.73;;;1.53;;
5979;SDS011;3016;50.308;8.258;2022-09-02T15:16:25;3.57;;;1.47;;
5979;SDS011;3016;50.308;8.258;2022-09-02T15:19:26;4.27;;;1.40;;
5979;SDS011;3016;50.308;8.258;2022-09-02T15:22:26;3.20;;;1.20;;
5979;SDS011;3016;50.308;8.258;2022-09-02T15:25:27;3.43;;;1.47;;
5979;SDS011;3016;50.308;8.258;2022-09-02T15:28:28;5.33;;;2.13;;
5979;SDS011;3016;50.308;8.258;2022-09-02T15:31:29;11.63;;;1.47;;
5979;SDS011;3016;50.308;8.258;2022-09-02T15:34:30;4.40;;;1.50;;
5979;SDS011;3016;50.308;8.258;2022-09-02T15:37:31;6.53;;;1.50;;
5979;SDS011;3016;50.308;8.258;2022-09-02T15:40:36;6.00;;;1.60;;
5979;SDS011;3016;50.308;8.258;2022-09-02T15:43:37;8.03;;;1.83;;
5979;SDS011;3016;50.308;8.258;2022-09-02T15:46:37;5.37;;;1.70;;
5979;SDS011;3016;50.308;8.258;2022-09-02T15:49:38;5.90;;;1.97;;
5979;SDS011;3016;50.308;8.258;2022-09-02T15:52:39;5.53;;;1.53;;
5979;SDS011;3016;50.308;8.258;2022-09-02T15:55:40;3.27;;;1.60;;
5979;SDS011;3016;50.308;8.258;2022-09-02T15:58:40;4.20;;;1.90;;
5979;SDS011;3016;50.308;8.258;2022-09-02T16:01:42;4.07;;;1.30;;
5979;SDS011;3016;50.308;8.258;2022-09-02T16:04:46;4.17;;;1.53;;
5979;SDS011;3016;50.308;8.258;2022-09-02T16:07:47;3.33;;;1.70;;
5979;SDS011;3016;50.308;8.258;2022-09-02T16:10:47;3.20;;;1.57;;
5979;SDS011;3016;50.308;8.258;2022-09-02T16:13:48;5.80;;;1.47;;
5979;SDS011;3016;50.308;8.258;2022-09-02T16:16:50;3.40;;;1.40;;
5979;SDS011;3016;50.308;8.258;2022-09-02T16:19:52;2.37;;;1.30;;
5979;SDS011;3016;50.308;8.258;2022-09-02T16:22:53;3.67;;;1.40;;
5979;SDS011;3016;50.308;8.258;2022-09-02T16:29:22;2.23;;;1.23;;
5979;SDS011;3016;50.308;8.258;2022-09-02T16:32:26;2.30;;;1.40;;
5979;SDS011;3016;50.308;8.258;2022-09-02T16:35:27;11.53;;;2.03;;
5979;SDS011;3016;50.308;8.258;2022-09-02T16:38:27;4.40;;;1.53;;
5979;SDS011;3016;50.308;8.258;2022-09-02T16:41:29;6.90;;;1.50;;
5979;SDS011;3016;50.308;8.258;2022-09-02T16:44:35;4.30;;;1.70;;
5979;SDS011;3016;50.308;8.258;2022-09-02T16:47:36;2.70;;;1.30;;
5979;SDS011;3016;50.308;8.258;2022-09-02T16:50:37;3.17;;;1.47;;
5979;SDS011;3016;50.308;8.258;2022-09-02T16:53:38;2.83;;;1.70;;
5979;SDS011;3016;50.308;8.258;2022-09-02T16:56:38;2.40;;;1.40;;
5979;SDS011;3016;50.308;8.258;2022-09-02T16:59:39;3.33;;;1.30;;
5979;SDS011;3016;50.308;8.258;2022-09-02T17:02:40;40.03;;;29.53;;
5979;SDS011;3016;50.308;8.258;2022-09-02T17:05:40;3.17;;;1.30;;
5979;SDS011;3016;50.308;8.258;2022-09-02T17:08:43;2.20;;;1.40;;
5979;SDS011;3016;50.308;8.258;2022-09-02T17:11:43;2.40;;;1.40;;
5979;SDS011;3016;50.308;8.258;2022-09-02T17:14:44;4.20;;;1.20;;
5979;SDS011;3016;50.308;8.258;2022-09-02T17:17:46;6.43;;;1.43;;
5979;SDS011;3016;50.308;8.258;2022-09-02T17:20:46;3.60;;;1.50;;
5979;SDS011;3016;50.308;8.258;2022-09-02T17:23:47;3.53;;;1.43;;
5979;SDS011;3016;50.308;8.258;2022-09-02T17:26:49;33.90;;;1.70;;
5979;SDS011;3016;50.308;8.258;2022-09-02T17:29:54;4.70;;;1.70;;
5979;SDS011;3016;50.308;8.258;2022-09-02T17:32:55;7.37;;;1.77;;
5979;SDS011;3016;50.308;8.258;2022-09-02T17:35:57;7.27;;;1.30;;
5979;SDS011;3016;50.308;8.258;2022-09-02T17:39:00;18.73;;;1.77;;
5979;SDS011;3016;50.308;8.258;2022-09-02T17:42:10;3.43;;;1.43;;
5979;SDS011;3016;50.308;8.258;2022-09-02T17:45:11;6.33;;;1.23;;
5979;SDS011;3016;50.308;8.258;2022-09-02T17:48:12;3.00;;;1.43;;
5979;SDS011;3016;50.308;8.258;2022-09-02T17:51:12;2.97;;;1.10;;
5979;SDS011;3016;50.308;8.258;2022-09-02T17:54:13;2.47;;;1.47;;
5979;SDS011;3016;50.308;8.258;2022-09-02T18:00:36;2.90;;;1.33;;
5979;SDS011;3016;50.308;8.258;2022-09-02T18:03:43;2.97;;;1.40;;
5979;SDS011;3016;50.308;8.258;2022-09-02T18:11:08;19.80;;;2.70;;
5979;SDS011;3016;50.308;8.258;2022-09-02T18:14:12;24.40;;;3.93;;
5979;SDS011;3016;50.308;8.258;2022-09-02T18:17:45;18.33;;;2.80;;
5979;SDS011;3016;50.308;8.258;2022-09-02T18:20:52;10.33;;;3.10;;
5979;SDS011;3016;50.308;8.258;2022-09-02T18:24:11;7.80;;;2.50;;
5979;SDS011;3016;50.308;8.258;2022-09-02T18:27:38;7.20;;;1.83;;
5979;SDS011;3016;50.308;8.258;2022-09-02T18:45:55;4.50;;;2.03;;
5979;SDS011;3016;50.308;8.258;2022-09-02T18:49:01;3.83;;;2.13;;
5979;SDS011;3016;50.308;8.258;2022-09-02T18:52:04;2.87;;;1.70;;
5979;SDS011;3016;50.308;8.258;2022-09-02T18:55:13;4.50;;;1.57;;
5979;SDS011;3016;50.308;8.258;2022-09-02T19:01:47;3.10;;;1.53;;
5979;SDS011;3016;50.308;8.258;2022-09-02T19:04:56;3.00;;;1.50;;
5979;SDS011;3016;50.308;8.258;2022-09-02T19:08:04;2.70;;;1.30;;
5979;SDS011;3016;50.308;8.258;2022-09-02T19:11:32;4.37;;;1.60;;
5979;SDS011;3016;50.308;8.258;2022-09-02T19:14:35;3.80;;;1.50;;
5979;SDS011;3016;50.308;8.258;2022-09-02T19:17:39;3.77;;;1.57;;
5979;SDS011;3016;50.308;8.258;2022-09-02T19:20:41;3.90;;;1.70;;
5979;SDS011;3016;50.308;8.258;2022-09-02T19:23:42;4.70;;;1.50;;
5979;SDS011;3016;50.308;8.258;2022-09-02T19:26:42;3.93;;;1.20;;
5979;SDS011;3016;50.308;8.258;2022-09-02T19:29:45;5.20;;;1.53;;
5979;SDS011;3016;50.308;8.258;2022-09-02T19:32:55;4.37;;;4.10;;
5979;SDS011;3016;50.308;8.258;2022-09-02T19:35:59;2.40;;;1.13;;
5979;SDS011;3016;50.308;8.258;2022-09-02T19:38:59;4.10;;;1.57;;
5979;SDS011;3016;50.308;8.258;2022-09-02T19:42:00;3.20;;;1.50;;
5979;SDS011;3016;50.308;8.258;2022-09-02T19:45:01;4.90;;;1.90;;
5979;SDS011;3016;50.308;8.258;2022-09-02T19:48:02;4.50;;;1.23;;
5979;SDS011;3016;50.308;8.258;2022-09-02T19:51:06;3.60;;;1.10;;
5979;SDS011;3016;50.308;8.258;2022-09-02T19:54:12;4.60;;;2.00;;
5979;SDS011;3016;50.308;8.258;2022-09-02T19:57:14;5.30;;;1.30;;
5979;SDS011;3016;50.308;8.258;2022-09-02T20:00:15;4.70;;;1.87;;
5979;SDS011;3016;50.308;8.258;2022-09-02T20:03:16;14.20;;;1.30;;
5979;SDS011;3016;50.308;8.258;2022-09-02T20:06:17;7.03;;;1.90;;
5979;SDS011;3016;50.308;8.258;2022-09-02T20:09:18;11.93;;;2.50;;
5979;SDS011;3016;50.308;8.258;2022-09-02T20:12:18;6.43;;;1.90;;
5979;SDS011;3016;50.308;8.258;2022-09-02T20:15:19;3.40;;;1.70;;
5979;SDS011;3016;50.308;8.258;2022-09-02T20:18:21;5.10;;;1.90;;
5979;SDS011;3016;50.308;8.258;2022-09-02T20:21:27;3.77;;;1.60;;
5979;SDS011;3016;50.308;8.258;2022-09-02T20:24:31;4.07;;;2.13;;
5979;SDS011;3016;50.308;8.258;2022-09-02T20:30:50;8.67;;;2.37;;
5979;SDS011;3016;50.308;8.258;2022-09-02T20:34:21;3.90;;;1.70;;
5979;SDS011;3016;50.308;8.258;2022-09-02T20:37:43;4.70;;;2.00;;
5979;SDS011;3016;50.308;8.258;2022-09-02T20:40:59;4.20;;;1.47;;
5979;SDS011;3016;50.308;8.258;2022-09-02T20:44:28;134.57;;;19.10;;
5979;SDS011;3016;50.308;8.258;2022-09-02T20:51:38;22.47;;;1.50;;
5979;SDS011;3016;50.308;8.258;2022-09-02T20:54:46;13.30;;;1.30;;
5979;SDS011;3016;50.308;8.258;2022-09-02T20:58:23;14.60;;;1.40;;
5979;SDS011;3016;50.308;8.258;2022-09-02T21:01:41;92.03;;;23.40;;
5979;SDS011;3016;50.308;8.258;2022-09-02T21:04:45;92.10;;;22.40;;
5979;SDS011;3016;50.308;8.258;2022-09-02T21:08:25;130.53;;;88.70;;
5979;SDS011;3016;50.308;8.258;2022-09-02T21:11:34;1999.90;;;999.90;;
5979;SDS011;3016;50.308;8.258;2022-09-02T21:14:53;1999.90;;;999.90;;
5979;SDS011;3016;50.308;8.258;2022-09-02T21:18:07;1999.90;;;999.90;;
5979;SDS011;3016;50.308;8.258;2022-09-02T21:21:52;39.23;;;3.10;;
5979;SDS011;3016;50.308;8.258;2022-09-02T21:24:53;50.83;;;3.10;;